Time;durP1;ratioP1;P1;durP2;ratioP2;P2;SDS_P1;SDS_P2;PMS_P1;PMS_P2;Temp;Humidity;BMP_temperature;BMP_pressure;BME280_temperature;BME280_humidity;BME280_pressure;Samples;Min_cycle;Max_cycle;Signal;HPM_P1;HPM_P2
2023/06/07 00:00:41;;;;;;;10.50;1.10;;;;;;;14.37;100.00;100171.55;105477;1260;68201;-48
2023/06/07 00:03:09;;;;;;;12.10;1.10;;;;;;;14.36;100.00;100171.08;105259;1260;72653;-49
2023/06/07 00:05:38;;;;;;;8.00;0.90;;;;;;;14.31;100.00;100170.11;105349;1260;60545;-49
2023/06/07 00:08:07;;;;;;;7.40;1.10;;;;;;;14.26;100.00;100167.34;106814;1259;60968;-49
2023/06/07 00:10:34;;;;;;;7.50;0.80;;;;;;;14.24;100.00;100164.94;105773;1260;73816;-47
2023/06/07 00:13:01;;;;;;;6.50;0.80;;;;;;;14.24;100.00;100166.72;105312;1260;65761;-47
2023/06/07 00:15:29;;;;;;;14.80;1.70;;;;;;;14.27;100.00;100165.52;105354;1260;70738;-48
2023/06/07 00:17:59;;;;;;;5.40;0.70;;;;;;;14.29;100.00;100163.57;105351;1254;61741;-48
2023/06/07 00:20:27;;;;;;;17.40;1.90;;;;;;;14.32;100.00;100164.31;105721;1254;60534;-48
2023/06/07 00:22:58;;;;;;;9.30;0.90;;;;;;;14.35;100.00;100164.48;105321;1257;73784;-48
2023/06/07 00:25:25;;;;;;;6.40;0.70;;;;;;;14.38;100.00;100164.48;105548;1260;67557;-48
2023/06/07 00:27:53;;;;;;;13.10;1.40;;;;;;;14.41;100.00;100165.81;105314;1258;72570;-47
2023/06/07 00:30:20;;;;;;;7.70;1.30;;;;;;;14.40;100.00;100169.27;105442;1260;60506;-48
2023/06/07 00:32:48;;;;;;;9.20;1.20;;;;;;;14.38;100.00;100166.66;105522;1259;60574;-48
2023/06/07 00:35:15;;;;;;;7.80;1.20;;;;;;;14.35;100.00;100165.54;105485;1254;72687;-46
2023/06/07 00:37:43;;;;;;;12.30;1.90;;;;;;;14.32;100.00;100168.27;105325;1260;66908;-48
2023/06/07 00:40:11;;;;;;;6.60;1.60;;;;;;;14.27;100.00;100169.80;105704;1260;71184;-48
2023/06/07 00:42:38;;;;;;;11.80;2.00;;;;;;;14.22;100.00;100173.69;105336;1254;60417;-47
2023/06/07 00:45:06;;;;;;;10.40;1.10;;;;;;;14.17;100.00;100171.65;105353;1267;60367;-48
2023/06/07 00:47:36;;;;;;;9.50;1.10;;;;;;;14.13;100.00;100169.34;105393;1260;73724;-48
2023/06/07 00:50:05;;;;;;;8.60;1.00;;;;;;;14.11;100.00;100167.48;105934;1263;66621;-47
2023/06/07 00:52:34;;;;;;;4.60;0.90;;;;;;;14.11;100.00;100170.56;105859;1254;72644;-47
2023/06/07 00:55:02;;;;;;;0.80;0.60;;;;;;;14.11;100.00;100169.82;105443;1260;61013;-47
2023/06/07 00:57:29;;;;;;;0.70;0.60;;;;;;;14.12;100.00;100170.11;105312;1260;60428;-49
2023/06/07 00:59:56;;;;;;;1.00;0.50;;;;;;;14.15;100.00;100169.27;105394;1260;74703;-48
2023/06/07 01:02:26;;;;;;;0.80;0.50;;;;;;;14.17;100.00;100169.15;105298;1259;67269;-48
2023/06/07 01:04:55;;;;;;;1.70;0.50;;;;;;;14.18;100.00;100169.28;105264;1260;71458;-49
2023/06/07 01:07:24;;;;;;;1.40;0.50;;;;;;;14.17;100.00;100173.84;105316;1259;62023;-49
2023/06/07 01:09:52;;;;;;;2.50;0.50;;;;;;;14.13;100.00;100175.70;105490;1254;62216;-49
2023/06/07 01:12:20;;;;;;;0.70;0.50;;;;;;;14.10;100.00;100175.48;106450;1254;73825;-49
2023/06/07 01:14:48;;;;;;;2.20;0.60;;;;;;;14.09;100.00;100176.98;105387;1254;67818;-49
2023/06/07 01:17:16;;;;;;;1.20;0.60;;;;;;;14.07;100.00;100179.09;105685;1260;72744;-49
2023/06/07 01:19:45;;;;;;;0.70;0.50;;;;;;;14.06;100.00;100179.84;105151;1254;60825;-49
2023/06/07 01:22:14;;;;;;;0.60;0.50;;;;;;;14.06;100.00;100176.60;105150;1260;60430;-49
2023/06/07 01:24:42;;;;;;;0.80;0.50;;;;;;;14.04;100.00;100177.60;104894;1261;72064;-49
2023/06/07 01:27:10;;;;;;;1.60;0.50;;;;;;;14.03;100.00;100179.45;105701;1259;67604;-49
2023/06/07 01:29:37;;;;;;;0.90;0.70;;;;;;;14.01;100.00;100181.04;105057;1257;72789;-49
2023/06/07 01:32:07;;;;;;;0.90;0.50;;;;;;;13.99;100.00;100180.59;104990;1257;60558;-49
2023/06/07 01:34:35;;;;;;;1.80;0.50;;;;;;;13.97;100.00;100180.33;106301;1255;60541;-49
2023/06/07 01:37:02;;;;;;;1.70;0.50;;;;;;;13.97;100.00;100183.20;105245;1254;72594;-49
2023/06/07 01:39:30;;;;;;;3.10;0.50;;;;;;;14.00;100.00;100184.50;105076;1259;67621;-49
2023/06/07 01:41:57;;;;;;;2.00;0.50;;;;;;;14.05;100.00;100179.93;104922;1255;73182;-48
2023/06/07 01:44:25;;;;;;;1.40;0.50;;;;;;;14.10;100.00;100181.80;105246;1261;60542;-49
2023/06/07 01:46:52;;;;;;;0.80;0.40;;;;;;;14.14;100.00;100178.83;105249;1254;60457;-48
2023/06/07 01:49:21;;;;;;;0.60;0.50;;;;;;;14.20;100.00;100179.79;105555;1259;73843;-48
2023/06/07 01:51:48;;;;;;;0.90;0.60;;;;;;;14.26;100.00;100180.38;105266;1259;68027;-48
2023/06/07 01:54:15;;;;;;;0.60;0.40;;;;;;;14.31;100.00;100179.48;105302;1258;72678;-50
2023/06/07 01:56:45;;;;;;;0.90;0.60;;;;;;;14.37;100.00;100182.62;105190;1254;61624;-47
2023/06/07 01:59:23;;;;;;;0.60;0.50;;;;;;;14.44;100.00;100183.90;105693;1255;60540;-49
2023/06/07 02:02:16;;;;;;;2.50;0.60;;;;;;;14.49;100.00;100185.56;105321;1259;74221;-49
2023/06/07 02:04:45;;;;;;;0.80;0.50;;;;;;;14.55;100.00;100182.15;105400;1254;67731;-47
2023/06/07 02:07:16;;;;;;;3.20;0.80;;;;;;;14.59;100.00;100184.63;105311;1260;72215;-47
2023/06/07 02:09:44;;;;;;;1.40;0.60;;;;;;;14.61;100.00;100183.43;108914;1257;58759;-51
2023/06/07 02:12:11;;;;;;;0.60;0.50;;;;;;;14.63;100.00;100186.02;109004;1254;58934;-51
2023/06/07 02:14:38;;;;;;;1.80;0.70;;;;;;;14.65;100.00;100189.89;108878;1257;73762;-51
2023/06/07 02:17:07;;;;;;;1.90;0.50;;;;;;;14.65;100.00;100188.58;108941;1253;68595;-51
2023/06/07 02:19:36;;;;;;;0.70;0.70;;;;;;;14.65;100.00;100188.96;108791;1257;72646;-51
2023/06/07 02:22:05;;;;;;;2.30;0.70;;;;;;;14.65;100.00;100188.79;108962;1257;60441;-51
2023/06/07 02:24:34;;;;;;;1.00;0.50;;;;;;;14.66;100.00;100190.70;108995;1254;59882;-51
2023/06/07 02:27:02;;;;;;;0.70;0.60;;;;;;;14.68;100.00;100192.92;109000;1257;74265;-50
2023/06/07 02:29:29;;;;;;;3.00;0.50;;;;;;;14.73;100.00;100195.52;108978;1254;69050;-51
2023/06/07 02:31:57;;;;;;;3.40;0.50;;;;;;;14.76;100.00;100194.62;108845;1254;72665;-51
2023/06/07 02:34:26;;;;;;;1.20;0.50;;;;;;;14.80;100.00;100196.57;109025;1254;61727;-50
2023/06/07 02:36:53;;;;;;;0.60;0.50;;;;;;;14.84;100.00;100193.61;108834;1254;59099;-51
2023/06/07 02:39:22;;;;;;;2.20;0.60;;;;;;;14.88;100.00;100193.79;109035;1254;72643;-51
2023/06/07 02:41:49;;;;;;;0.80;0.50;;;;;;;14.92;100.00;100196.42;108798;1254;66449;-51
2023/06/07 02:44:16;;;;;;;2.00;0.50;;;;;;;14.95;100.00;100194.79;109077;1253;71382;-51
2023/06/07 02:46:44;;;;;;;1.50;0.50;;;;;;;14.98;100.00;100195.29;108958;1254;58848;-50
2023/06/07 02:49:11;;;;;;;1.30;0.50;;;;;;;15.02;100.00;100193.99;108825;1254;60040;-50
2023/06/07 02:51:39;;;;;;;0.80;0.60;;;;;;;15.03;100.00;100196.27;108865;1254;73799;-51
2023/06/07 02:54:08;;;;;;;2.50;0.50;;;;;;;15.03;100.00;100197.90;108974;1254;68186;-51
2023/06/07 02:56:36;;;;;;;1.30;0.60;;;;;;;15.05;100.00;100194.22;108145;1260;71498;-48
2023/06/07 02:59:03;;;;;;;1.20;0.50;;;;;;;15.05;100.00;100196.91;105256;1259;60840;-47
2023/06/07 03:01:34;;;;;;;0.40;0.40;;;;;;;15.06;100.00;100194.27;105413;1258;60572;-50
2023/06/07 03:04:01;;;;;;;0.50;0.40;;;;;;;15.08;100.00;100194.52;105690;1254;73798;-49
2023/06/07 03:06:29;;;;;;;0.60;0.50;;;;;;;15.10;100.00;100198.36;105256;1254;65956;-47
2023/06/07 03:09:00;;;;;;;1.10;0.40;;;;;;;15.10;100.00;100199.99;106598;1263;73172;-50
2023/06/07 03:11:29;;;;;;;0.70;0.50;;;;;;;15.11;100.00;100215.33;106112;1259;60488;-47
2023/06/07 03:13:56;;;;;;;2.50;0.50;;;;;;;15.12;100.00;100211.27;105374;1260;60537;-50
2023/06/07 03:16:28;;;;;;;0.60;0.60;;;;;;;15.15;100.00;100214.00;106420;1257;73981;-47
2023/06/07 03:18:59;;;;;;;0.60;0.40;;;;;;;15.19;100.00;100209.44;106137;1254;68301;-48
2023/06/07 03:21:26;;;;;;;1.20;0.60;;;;;;;15.23;100.00;100209.21;105325;1260;72606;-48
2023/06/07 03:23:56;;;;;;;1.50;0.50;;;;;;;15.24;100.00;100214.00;105283;1260;60740;-49
2023/06/07 03:26:23;;;;;;;0.70;0.60;;;;;;;15.24;100.00;100215.62;105333;1254;60502;-48
2023/06/07 03:28:52;;;;;;;0.70;0.60;;;;;;;15.25;100.00;100218.48;105261;1260;73825;-47
2023/06/07 03:31:19;;;;;;;0.60;0.50;;;;;;;15.25;100.00;100220.98;105601;1254;67197;-48
2023/06/07 03:33:54;;;;;;;;;;;;;;;15.27;100.00;100222.34;105495;1261;72718;-49
2023/06/07 03:36:24;;;;;;;1.40;0.60;;;;;;;15.28;100.00;100223.90;105331;1260;60669;-48
2023/06/07 03:38:53;;;;;;;1.40;0.60;;;;;;;15.29;100.00;100222.42;105319;1255;60482;-49
2023/06/07 03:41:21;;;;;;;2.70;0.50;;;;;;;15.30;100.00;100223.20;106013;1256;73680;-49
2023/06/07 03:43:49;;;;;;;1.50;0.50;;;;;;;15.34;100.00;100221.92;105940;1254;67375;-49
2023/06/07 03:46:20;;;;;;;0.70;0.50;;;;;;;15.38;100.00;100220.02;105615;1254;71244;-50
2023/06/07 03:48:48;;;;;;;1.20;0.50;;;;;;;15.41;100.00;100221.80;105541;1254;61666;-49
2023/06/07 03:51:19;;;;;;;0.60;0.50;;;;;;;15.45;100.00;100217.77;105849;1258;60552;-49
2023/06/07 03:53:47;;;;;;;2.00;0.40;;;;;;;15.50;100.00;100222.90;105387;1254;71709;-49
2023/06/07 03:56:14;;;;;;;2.70;0.50;;;;;;;15.55;100.00;100219.91;105589;1254;67713;-49
2023/06/07 03:58:45;;;;;;;1.50;0.50;;;;;;;15.61;100.00;100222.80;105554;1254;72400;-49
2023/06/07 04:01:16;;;;;;;1.70;0.60;;;;;;;15.66;100.00;100224.48;105447;1260;60399;-48
2023/06/07 04:03:44;;;;;;;2.40;0.60;;;;;;;15.72;100.00;100225.39;105644;1256;60594;-49
2023/06/07 04:06:12;;;;;;;2.10;0.70;;;;;;;15.75;100.00;100226.42;105444;1258;73933;-47
2023/06/07 04:08:39;;;;;;;1.80;0.70;;;;;;;15.79;100.00;100227.48;105456;1258;65652;-49
2023/06/07 04:11:07;;;;;;;0.90;0.70;;;;;;;15.82;100.00;100228.51;105461;1259;72745;-48
2023/06/07 04:13:35;;;;;;;0.80;0.60;;;;;;;15.86;100.00;100233.00;105245;1254;60537;-46
2023/06/07 04:16:02;;;;;;;1.00;0.60;;;;;;;15.90;100.00;100235.32;105367;1256;60457;-49
2023/06/07 04:18:30;;;;;;;2.10;0.70;;;;;;;15.94;100.00;100235.25;105330;1256;72860;-47
2023/06/07 04:20:57;;;;;;;3.50;0.70;;;;;;;15.97;100.00;100233.59;105234;1253;68112;-47
2023/06/07 04:23:25;;;;;;;0.90;0.70;;;;;;;16.02;100.00;100235.80;105372;1258;71616;-47
2023/06/07 04:25:56;;;;;;;5.40;0.60;;;;;;;16.07;100.00;100240.58;108800;1254;61782;-49
2023/06/07 04:28:23;;;;;;;1.70;0.60;;;;;;;16.13;100.00;100244.53;105228;1257;60483;-47
2023/06/07 04:30:53;;;;;;;1.10;0.60;;;;;;;16.19;100.00;100246.63;105316;1257;73879;-48
2023/06/07 04:33:22;;;;;;;2.30;0.80;;;;;;;16.26;100.00;100247.13;107274;1254;66516;-49
2023/06/07 04:35:50;;;;;;;1.20;0.80;;;;;;;16.33;100.00;100247.23;108824;1256;73058;-51
2023/06/07 04:38:20;;;;;;;3.00;1.20;;;;;;;16.40;100.00;100244.61;105878;1256;60534;-49
2023/06/07 04:40:51;;;;;;;3.90;2.00;;;;;;;16.45;100.00;100243.86;106427;1257;60962;-48
2023/06/07 04:43:42;;;;;;;3.10;1.60;;;;;;;16.53;100.00;100241.21;108739;1254;73852;-51
2023/06/07 04:46:10;;;;;;;3.20;1.90;;;;;;;16.58;100.00;100244.67;105871;1260;68051;-51
2023/06/07 04:48:40;;;;;;;4.90;2.50;;;;;;;16.64;100.00;100247.39;105610;1253;73139;-49
2023/06/07 04:51:10;;;;;;;2.60;1.80;;;;;;;16.70;100.00;100249.19;105387;1257;60511;-49
2023/06/07 04:53:42;;;;;;;4.80;2.30;;;;;;;16.75;100.00;100250.31;105387;1253;60360;-49
2023/06/07 04:56:12;;;;;;;6.60;1.70;;;;;;;16.80;100.00;100248.68;108823;1256;72933;-51
2023/06/07 04:58:40;;;;;;;3.30;1.90;;;;;;;16.85;100.00;100251.60;107351;1253;67719;-49
2023/06/07 05:01:10;;;;;;;8.70;1.60;;;;;;;16.90;100.00;100254.18;106277;1253;72416;-50
2023/06/07 05:03:41;;;;;;;4.40;1.50;;;;;;;16.94;100.00;100254.95;105464;1260;60446;-50
2023/06/07 05:06:11;;;;;;;2.40;1.00;;;;;;;17.00;100.00;100254.45;106730;1253;60540;-48
2023/06/07 05:08:39;;;;;;;3.30;0.90;;;;;;;17.05;100.00;100259.89;105360;1254;74804;-48
2023/06/07 05:11:06;;;;;;;1.60;0.90;;;;;;;17.11;100.00;100263.66;105833;1256;66779;-50
2023/06/07 05:13:34;;;;;;;3.30;0.70;;;;;;;17.16;100.00;100265.32;105309;1254;72754;-50
2023/06/07 05:16:02;;;;;;;1.00;0.80;;;;;;;17.22;100.00;100265.42;104922;1256;61658;-48
2023/06/07 05:18:30;;;;;;;4.10;0.90;;;;;;;17.29;100.00;100265.33;104782;1254;60512;-49
2023/06/07 05:20:58;;;;;;;1.80;0.80;;;;;;;17.36;100.00;100270.80;108890;1253;72462;-49
2023/06/07 05:23:26;;;;;;;1.70;1.00;;;;;;;17.44;100.00;100274.30;108928;1253;67604;-49
2023/06/07 05:25:55;;;;;;;1.70;0.90;;;;;;;17.51;100.00;100281.44;108951;1253;72823;-49
2023/06/07 05:28:22;;;;;;;1.20;0.70;;;;;;;17.58;100.00;100281.48;108837;1257;60107;-49
2023/06/07 05:30:53;;;;;;;5.50;0.70;;;;;;;17.65;100.00;100283.17;108808;1253;58797;-49
2023/06/07 05:33:21;;;;;;;1.10;0.70;;;;;;;17.73;100.00;100281.94;108828;1254;73877;-49
2023/06/07 05:35:48;;;;;;;4.90;0.70;;;;;;;17.79;100.00;100282.98;108870;1257;67561;-49
2023/06/07 05:38:17;;;;;;;1.30;0.80;;;;;;;17.85;100.00;100283.44;108655;1256;73109;-49
2023/06/07 05:40:44;;;;;;;0.80;0.60;;;;;;;17.90;100.00;100284.88;108871;1253;60027;-50
2023/06/07 05:43:12;;;;;;;3.90;0.80;;;;;;;17.96;100.00;100283.39;108811;1253;58754;-49
2023/06/07 05:45:40;;;;;;;0.90;0.60;;;;;;;18.01;100.00;100283.55;108856;1253;75878;-50
2023/06/07 05:48:08;;;;;;;1.90;0.70;;;;;;;18.08;100.00;100282.52;108827;1253;67617;-49
2023/06/07 05:50:35;;;;;;;0.80;0.60;;;;;;;18.14;100.00;100286.61;108263;1256;73023;-50
2023/06/07 05:53:02;;;;;;;2.00;0.50;;;;;;;18.21;100.00;100288.54;104851;1256;60653;-49
2023/06/07 05:55:30;;;;;;;1.50;0.70;;;;;;;18.27;100.00;100289.71;105072;1254;60545;-50
2023/06/07 05:57:57;;;;;;;1.80;0.60;;;;;;;18.34;100.00;100291.40;104917;1259;72615;-49
2023/06/07 06:00:25;;;;;;;4.80;0.60;;;;;;;18.40;100.00;100290.37;107018;1256;67525;-49
2023/06/07 06:02:52;;;;;;;2.20;0.80;;;;;;;18.48;100.00;100295.45;104718;1254;72345;-50
2023/06/07 06:05:21;;;;;;;1.50;0.50;;;;;;;18.55;100.00;100297.48;105904;1256;60571;-50
2023/06/07 06:07:48;;;;;;;1.10;0.50;;;;;;;18.63;100.00;100297.31;104836;1259;60971;-51
2023/06/07 06:10:16;;;;;;;2.60;0.60;;;;;;;18.70;100.00;100300.79;106431;1256;74832;-50
2023/06/07 06:12:43;;;;;;;0.80;0.50;;;;;;;18.77;100.00;100304.63;105296;1254;68067;-50
2023/06/07 06:15:11;;;;;;;1.90;0.40;;;;;;;18.84;100.00;100308.11;105264;1256;71286;-48
2023/06/07 06:17:38;;;;;;;4.40;1.40;;;;;;;18.91;100.00;100305.41;105243;1254;60720;-50
2023/06/07 06:20:07;;;;;;;0.70;0.50;;;;;;;18.99;100.00;100304.48;105358;1256;60544;-50
2023/06/07 06:22:35;;;;;;;2.10;0.50;;;;;;;19.06;100.00;100305.60;105644;1256;73898;-50
2023/06/07 06:25:03;;;;;;;0.60;0.50;;;;;;;19.12;100.00;100308.36;105312;1257;67644;-50
2023/06/07 06:27:30;;;;;;;2.60;0.50;;;;;;;19.18;100.00;100309.88;105801;1253;72675;-49
2023/06/07 06:29:58;;;;;;;4.60;0.50;;;;;;;19.25;100.00;100310.96;105510;1255;60517;-50
2023/06/07 06:32:25;;;;;;;1.00;0.60;;;;;;;19.33;100.00;100310.58;105258;1255;60412;-50
2023/06/07 06:34:52;;;;;;;1.20;0.50;;;;;;;19.40;100.00;100313.87;105603;1259;73820;-51
2023/06/07 06:37:20;;;;;;;3.00;0.60;;;;;;;19.47;100.00;100312.86;105325;1256;66323;-51
2023/06/07 06:39:48;;;;;;;2.20;0.60;;;;;;;19.54;100.00;100316.29;105781;1254;72581;-50
2023/06/07 06:42:15;;;;;;;1.70;0.60;;;;;;;19.62;100.00;100316.20;105538;1256;60435;-50
2023/06/07 06:47:28;;;;;;;0.80;0.60;;;;;;;19.80;100.00;100315.06;102247;1294;600728;-51
2023/06/07 06:49:55;;;;;;;2.70;0.60;;;;;;;19.85;100.00;100320.10;104466;1270;60075;-50
2023/06/07 06:52:24;;;;;;;1.00;0.60;;;;;;;19.93;100.00;100319.85;104595;1266;60146;-50
2023/06/07 06:54:51;;;;;;;3.50;0.60;;;;;;;20.01;100.00;100321.00;104429;1263;71986;-51
2023/06/07 06:57:18;;;;;;;0.80;0.60;;;;;;;20.10;100.00;100320.52;104449;1264;66957;-51
2023/06/07 06:59:46;;;;;;;1.70;0.50;;;;;;;20.17;100.00;100320.34;104506;1269;72664;-51
2023/06/07 07:02:16;;;;;;;2.40;0.70;;;;;;;20.23;100.00;100324.21;104725;1263;204074;-51
2023/06/07 07:04:44;;;;;;;0.60;0.50;;;;;;;20.27;100.00;100325.30;106113;1263;60051;-50
2023/06/07 07:07:11;;;;;;;2.20;0.50;;;;;;;20.32;100.00;100325.50;104810;1264;72229;-50
2023/06/07 07:09:38;;;;;;;1.60;0.60;;;;;;;20.37;100.00;100324.93;104559;1264;66789;-51
2023/06/07 07:12:07;;;;;;;3.20;0.50;;;;;;;20.43;100.00;100324.29;104638;1262;72709;-51
2023/06/07 07:14:34;;;;;;;3.00;0.60;;;;;;;20.50;100.00;100326.09;104894;1264;60292;-51
2023/06/07 07:17:01;;;;;;;2.60;0.60;;;;;;;20.58;100.00;100330.58;104695;1267;59999;-50
2023/06/07 07:19:29;;;;;;;5.50;0.50;;;;;;;20.64;100.00;100330.38;106943;1265;72751;-50
2023/06/07 07:21:56;;;;;;;1.30;0.50;;;;;;;20.70;100.00;100328.95;104456;1263;68769;-51
2023/06/07 07:24:24;;;;;;;2.70;0.50;;;;;;;20.78;100.00;100334.04;104633;1269;72701;-51
2023/06/07 07:26:51;;;;;;;0.70;0.50;;;;;;;20.85;100.00;100333.29;104615;1265;59759;-50
2023/06/07 07:29:19;;;;;;;1.00;0.30;;;;;;;20.92;100.00;100336.89;104543;1263;60026;-50
2023/06/07 07:31:46;;;;;;;1.70;0.60;;;;;;;20.97;100.00;100336.27;104428;1267;72893;-51
2023/06/07 07:34:13;;;;;;;5.10;0.70;;;;;;;21.02;100.00;100337.98;104580;1264;65551;-50
2023/06/07 07:36:44;;;;;;;3.20;0.60;;;;;;;21.08;100.00;100337.91;105059;1263;72660;-50
2023/06/07 07:39:11;;;;;;;3.10;0.60;;;;;;;21.13;100.00;100336.71;104600;1268;59733;-51
2023/06/07 07:41:41;;;;;;;3.30;0.60;;;;;;;21.19;100.00;100338.81;107028;1264;60022;-51
2023/06/07 07:44:09;;;;;;;0.70;0.50;;;;;;;21.26;100.00;100343.74;104519;1263;73075;-51
2023/06/07 07:48:47;;;;;;;1.90;0.60;;;;;;;21.39;100.00;100339.48;102275;1294;600177;-51
2023/06/07 07:51:15;;;;;;;1.00;0.50;;;;;;;21.44;100.00;100348.77;104458;1266;59366;-50
2023/06/07 07:53:42;;;;;;;1.70;0.60;;;;;;;21.52;100.00;100349.40;105061;1266;59171;-51
2023/06/07 07:56:10;;;;;;;3.40;0.60;;;;;;;21.59;100.00;100347.91;104593;1266;72066;-51
2023/06/07 07:58:37;;;;;;;2.70;0.70;;;;;;;21.65;100.00;100354.29;104543;1266;67698;-51
2023/06/07 08:01:08;;;;;;;0.70;0.50;;;;;;;21.72;100.00;100347.33;104554;1267;72652;-50
2023/06/07 08:03:35;;;;;;;1.90;0.60;;;;;;;21.76;100.00;100350.59;104498;1264;164902;-51
2023/06/07 08:06:03;;;;;;;2.60;0.60;;;;;;;21.81;100.00;100352.03;104699;1267;60136;-50
2023/06/07 08:08:31;;;;;;;2.30;0.60;;;;;;;21.86;100.00;100349.54;104609;1267;72277;-50
2023/06/07 08:11:00;;;;;;;0.70;0.50;;;;;;;21.92;100.00;100349.98;104818;1269;67199;-50
2023/06/07 08:13:28;;;;;;;0.70;0.50;;;;;;;22.00;100.00;100350.46;105341;1265;72539;-50
2023/06/07 08:15:55;;;;;;;0.80;0.50;;;;;;;22.07;100.00;100355.64;104664;1263;59707;-51
2023/06/07 08:18:23;;;;;;;3.00;0.60;;;;;;;22.17;100.00;100353.86;104611;1268;59699;-50
2023/06/07 08:20:51;;;;;;;3.90;0.60;;;;;;;22.26;100.00;100352.69;104628;1268;73033;-51
2023/06/07 08:23:18;;;;;;;1.10;0.50;;;;;;;22.34;100.00;100352.02;104479;1266;68336;-51
2023/06/07 08:25:45;;;;;;;2.90;0.60;;;;;;;22.42;100.00;100355.33;104484;1266;71377;-50
2023/06/07 08:28:12;;;;;;;3.00;0.60;;;;;;;22.51;100.00;100354.11;104408;1268;60140;-51
2023/06/07 08:30:40;;;;;;;3.80;0.80;;;;;;;22.60;100.00;100352.21;104455;1269;59756;-51
2023/06/07 08:33:08;;;;;;;2.50;0.60;;;;;;;22.69;100.00;100351.99;104377;1268;73153;-51
2023/06/07 08:35:35;;;;;;;1.10;0.60;;;;;;;22.77;100.00;100354.27;104433;1265;67550;-51
2023/06/07 08:38:02;;;;;;;1.20;0.50;;;;;;;22.83;100.00;100358.79;104406;1268;71871;-51
2023/06/07 08:40:30;;;;;;;1.10;0.60;;;;;;;22.90;100.00;100361.83;104460;1268;60576;-51
2023/06/07 08:42:57;;;;;;;2.20;0.60;;;;;;;22.93;100.00;100361.23;104351;1267;60187;-52
2023/06/07 08:45:24;;;;;;;6.20;0.60;;;;;;;22.95;100.00;100357.58;104486;1264;72034;-51
2023/06/07 08:47:52;;;;;;;2.60;0.60;;;;;;;22.99;100.00;100358.63;104483;1268;67041;-51
2023/06/07 08:50:19;;;;;;;1.30;0.60;;;;;;;23.03;100.00;100357.61;104654;1265;72744;-52
2023/06/07 08:52:48;;;;;;;0.80;0.50;;;;;;;23.06;100.00;100359.48;104654;1265;60091;-51
2023/06/07 08:55:15;;;;;;;3.30;0.50;;;;;;;23.11;100.00;100360.10;104366;1269;60085;-51
2023/06/07 08:57:45;;;;;;;1.00;0.50;;;;;;;23.17;100.00;100361.23;104393;1269;73003;-51
2023/06/07 09:00:13;;;;;;;2.50;0.50;;;;;;;23.20;100.00;100361.89;104653;1265;66410;-51
2023/06/07 09:02:40;;;;;;;0.80;0.50;;;;;;;23.23;100.00;100360.48;104709;1267;72080;-50
2023/06/07 09:05:10;;;;;;;2.20;0.60;;;;;;;23.27;100.00;100361.73;104979;1267;59557;-51
2023/06/07 09:07:37;;;;;;;1.20;0.50;;;;;;;23.31;100.00;100359.77;104612;1264;60211;-52
2023/06/07 09:10:05;;;;;;;1.30;0.50;;;;;;;23.33;100.00;100362.09;104597;1266;73070;-50
2023/06/07 09:12:35;;;;;;;3.60;0.70;;;;;;;23.35;100.00;100361.00;105235;1266;65659;-50
2023/06/07 09:15:04;;;;;;;2.00;0.50;;;;;;;23.37;100.00;100360.04;107361;1265;72696;-53
2023/06/07 09:17:54;;;;;;;3.20;0.60;;;;;;;23.42;100.00;100357.83;108284;1266;61963;-51
2023/06/07 09:20:24;;;;;;;2.60;0.60;;;;;;;23.45;100.00;100356.64;108298;1264;62525;-52
2023/06/07 09:23:09;;;;;;;1.40;0.50;;;;;;;23.46;100.00;100354.52;108139;1264;70892;-50
2023/06/07 09:25:37;;;;;;;2.40;0.50;;;;;;;23.49;100.00;100351.31;108416;1264;65642;-51
2023/06/07 09:28:09;;;;;;;1.30;0.60;;;;;;;23.54;100.00;100350.09;108345;1265;72663;-50
2023/06/07 09:30:56;;;;;;;1.00;0.70;;;;;;;23.63;100.00;100352.59;104509;1264;60589;-52
2023/06/07 09:33:33;;;;;;;1.30;0.70;;;;;;;23.73;100.00;100353.61;104257;1269;59678;-54
2023/06/07 09:36:08;;;;;;;2.20;0.60;;;;;;;23.79;100.00;100347.98;108307;1264;73024;-51
2023/06/07 09:38:36;;;;;;;3.80;0.70;;;;;;;23.82;100.00;100346.98;108420;1264;68088;-51
2023/06/07 09:41:05;;;;;;;1.70;0.60;;;;;;;23.85;100.00;100348.98;106786;1265;72685;-51
2023/06/07 09:43:54;;;;;;;1.10;0.60;;;;;;;23.93;100.00;100349.77;108255;1264;60069;-53
2023/06/07 09:46:22;;;;;;;0.90;0.50;;;;;;;24.01;100.00;100349.02;108253;1264;58948;-52
2023/06/07 09:48:53;;;;;;;2.70;0.60;;;;;;;24.05;100.00;100352.44;104791;1265;72493;-51
2023/06/07 09:51:20;;;;;;;1.60;0.60;;;;;;;24.09;100.00;100351.64;104709;1264;66530;-51
2023/06/07 09:53:51;;;;;;;0.70;0.50;;;;;;;24.13;100.00;100356.29;104666;1271;72696;-53
2023/06/07 09:56:19;;;;;;;1.90;0.70;;;;;;;24.16;100.00;100353.73;105177;1258;59355;-52
2023/06/07 09:59:07;;;;;;;2.10;0.50;;;;;;;24.19;100.00;100355.58;108784;1257;58840;-53
2023/06/07 10:01:37;;;;;;;1.60;0.60;;;;;;;24.19;100.00;100355.14;106121;1259;72166;-52
2023/06/07 10:04:06;;;;;;;2.40;0.70;;;;;;;24.21;100.00;100356.09;105598;1258;66717;-52
2023/06/07 10:06:35;;;;;;;3.40;0.70;;;;;;;24.23;100.00;100354.63;105475;1262;72726;-53
2023/06/07 10:09:04;;;;;;;1.00;0.60;;;;;;;24.29;100.00;100354.06;105898;1259;59728;-51
2023/06/07 10:11:36;;;;;;;2.80;0.80;;;;;;;24.36;100.00;100346.20;105022;1263;59677;-51
2023/06/07 10:14:10;;;;;;;1.10;0.70;;;;;;;24.43;100.00;100346.01;105026;1257;71864;-51
2023/06/07 10:16:42;;;;;;;1.70;0.70;;;;;;;24.49;100.00;100340.52;105590;1259;68231;-51
2023/06/07 10:19:27;;;;;;;3.00;0.80;;;;;;;24.56;100.00;100340.56;105145;1262;72150;-52
2023/06/07 10:21:55;;;;;;;3.10;0.60;;;;;;;24.63;100.00;100336.06;105065;1261;60004;-51
2023/06/07 10:24:32;;;;;;;2.90;0.70;;;;;;;24.66;100.00;100340.34;105084;1257;60088;-51
2023/06/07 10:27:08;;;;;;;3.40;0.60;;;;;;;24.71;100.00;100339.07;105102;1257;73027;-51
2023/06/07 10:29:41;;;;;;;2.40;0.70;;;;;;;24.73;100.00;100340.17;105222;1260;66029;-52
2023/06/07 10:32:30;;;;;;;2.40;0.70;;;;;;;24.74;100.00;100336.98;105546;1262;72285;-52
2023/06/07 10:34:57;;;;;;;3.90;0.60;;;;;;;24.75;100.00;100340.91;108567;1259;60141;-52
2023/06/07 10:37:30;;;;;;;0.60;0.40;;;;;;;24.75;100.00;100335.78;107747;1258;59369;-52
2023/06/07 10:39:58;;;;;;;0.70;0.50;;;;;;;24.73;100.00;100330.61;105607;1262;73045;-51
2023/06/07 10:42:25;;;;;;;1.90;0.50;;;;;;;24.76;100.00;100330.52;104949;1259;67636;-53
2023/06/07 10:44:53;;;;;;;1.30;0.40;;;;;;;24.81;100.00;100329.67;104986;1262;72738;-52
2023/06/07 10:47:21;;;;;;;0.90;0.50;;;;;;;24.85;100.00;100324.98;105275;1265;60529;-52
2023/06/07 10:49:49;;;;;;;1.30;0.40;;;;;;;24.89;100.00;100324.28;105008;1262;60075;-53
2023/06/07 10:52:17;;;;;;;2.00;0.40;;;;;;;24.90;100.00;100322.88;105744;1261;73133;-53
2023/06/07 10:54:45;;;;;;;1.30;1.00;;;;;;;24.92;100.00;100323.50;104851;1260;66925;-54
2023/06/07 10:57:12;;;;;;;1.00;0.40;;;;;;;24.92;100.00;100323.66;105220;1261;72676;-54
2023/06/07 10:59:40;;;;;;;1.50;0.40;;;;;;;24.91;100.00;100321.77;108464;1258;60623;-52
2023/06/07 11:02:29;;;;;;;1.80;0.50;;;;;;;24.89;100.00;100321.11;106216;1257;59730;-52
2023/06/07 11:04:57;;;;;;;1.10;0.50;;;;;;;24.83;100.00;100316.65;105079;1259;74329;-51
2023/06/07 11:07:30;;;;;;;1.90;0.60;;;;;;;24.76;100.00;100314.04;105155;1258;66792;-52
2023/06/07 11:10:04;;;;;;;1.50;0.70;;;;;;;24.73;100.00;100312.79;106532;1259;71939;-52
2023/06/07 11:12:40;;;;;;;2.30;1.10;;;;;;;24.73;100.00;100304.73;105233;1262;60187;-52
2023/06/07 11:15:20;;;;;;;0.80;0.60;;;;;;;24.75;100.00;100304.61;105635;1259;59971;-52
2023/06/07 11:17:52;;;;;;;2.80;0.70;;;;;;;24.76;100.00;100308.85;105149;1258;73026;-52
2023/06/07 11:20:35;;;;;;;1.70;0.70;;;;;;;24.73;100.00;100309.19;105103;1262;66974;-51
2023/06/07 11:23:28;;;;;;;3.00;0.60;;;;;;;24.68;100.00;100310.08;105126;1261;72708;-52